Kisarazu, Kisarazu Air Field (RJTK)

NameKisarazu Air Field
CityKisarazu
CountryJapan
ICAORJTK
IATA
Altitude3 m
CoordinatesGoogle Map
Live Air TrafficLiveATC.net
METARRJTK 090145Z 20019KT 9999 FEW030 BKN170 BKN200 20/12 Q1009 RMK 1CU030 5AC170 7CI200 A2980 MAX WIND 27KT
2019-05-09 01:45:00 Wind: South (200°) 9.77 m/s - Visibility: > 10000 m - Temperature: 20 °C - Dew point: 12 °C - Humidity: 60.2% - Pressure: 1009 hPa

Sorry, no flights used the airport in this database.